sensor_id;sensor_type;location;lat;lon;timestamp;P1;durP1;ratioP1;P2;durP2;ratioP2
79122;SDS011;68526;44.600;26.032;2023-03-11T00:00:21;16.65;;;12.50;;
79122;SDS011;68526;44.600;26.032;2023-03-11T00:01:25;17.23;;;12.25;;
79122;SDS011;68526;44.600;26.032;2023-03-11T00:02:26;17.45;;;11.63;;
79122;SDS011;68526;44.600;26.032;2023-03-11T00:03:27;17.27;;;12.32;;
79122;SDS011;68526;44.600;26.032;2023-03-11T00:04:30;15.65;;;11.98;;
79122;SDS011;68526;44.600;26.032;2023-03-11T00:05:32;15.93;;;11.80;;
79122;SDS011;68526;44.600;26.032;2023-03-11T00:06:35;17.00;;;11.90;;
79122;SDS011;68526;44.600;26.032;2023-03-11T00:07:37;16.08;;;11.48;;
79122;SDS011;68526;44.600;26.032;2023-03-11T00:08:40;15.82;;;11.95;;
79122;SDS011;68526;44.600;26.032;2023-03-11T00:09:42;16.50;;;11.65;;
79122;SDS011;68526;44.600;26.032;2023-03-11T00:10:44;16.98;;;11.77;;
79122;SDS011;68526;44.600;26.032;2023-03-11T00:11:46;17.25;;;12.20;;
79122;SDS011;68526;44.600;26.032;2023-03-11T00:12:47;16.60;;;12.02;;
79122;SDS011;68526;44.600;26.032;2023-03-11T00:13:49;17.15;;;12.13;;
79122;SDS011;68526;44.600;26.032;2023-03-11T00:14:50;16.30;;;11.30;;
79122;SDS011;68526;44.600;26.032;2023-03-11T00:15:52;16.23;;;11.48;;
79122;SDS011;68526;44.600;26.032;2023-03-11T00:16:54;17.42;;;12.13;;
79122;SDS011;68526;44.600;26.032;2023-03-11T00:17:56;17.75;;;12.13;;
79122;SDS011;68526;44.600;26.032;2023-03-11T00:18:58;16.98;;;11.43;;
79122;SDS011;68526;44.600;26.032;2023-03-11T00:20:00;15.30;;;11.32;;
79122;SDS011;68526;44.600;26.032;2023-03-11T00:21:01;18.58;;;12.23;;
79122;SDS011;68526;44.600;26.032;2023-03-11T00:22:03;15.73;;;10.98;;
79122;SDS011;68526;44.600;26.032;2023-03-11T00:23:04;16.08;;;11.80;;
79122;SDS011;68526;44.600;26.032;2023-03-11T00:24:08;17.77;;;13.13;;
79122;SDS011;68526;44.600;26.032;2023-03-11T00:25:09;16.80;;;11.77;;
79122;SDS011;68526;44.600;26.032;2023-03-11T00:26:12;16.55;;;12.00;;
79122;SDS011;68526;44.600;26.032;2023-03-11T00:27:12;17.85;;;12.70;;
79122;SDS011;68526;44.600;26.032;2023-03-11T00:28:14;17.30;;;12.32;;
79122;SDS011;68526;44.600;26.032;2023-03-11T00:29:16;17.33;;;12.05;;
79122;SDS011;68526;44.600;26.032;2023-03-11T00:30:18;18.92;;;12.57;;
79122;SDS011;68526;44.600;26.032;2023-03-11T00:31:19;16.73;;;12.30;;
79122;SDS011;68526;44.600;26.032;2023-03-11T00:32:21;18.00;;;12.18;;
79122;SDS011;68526;44.600;26.032;2023-03-11T00:33:22;17.75;;;13.85;;
79122;SDS011;68526;44.600;26.032;2023-03-11T00:34:24;18.10;;;12.07;;
79122;SDS011;68526;44.600;26.032;2023-03-11T00:35:26;17.90;;;13.43;;
79122;SDS011;68526;44.600;26.032;2023-03-11T00:36:31;17.08;;;12.52;;
79122;SDS011;68526;44.600;26.032;2023-03-11T00:37:32;16.48;;;11.80;;
79122;SDS011;68526;44.600;26.032;2023-03-11T00:38:34;19.02;;;13.57;;
79122;SDS011;68526;44.600;26.032;2023-03-11T00:39:38;18.35;;;13.20;;
79122;SDS011;68526;44.600;26.032;2023-03-11T00:40:38;19.00;;;12.68;;
79122;SDS011;68526;44.600;26.032;2023-03-11T00:41:40;19.70;;;13.60;;
79122;SDS011;68526;44.600;26.032;2023-03-11T00:42:43;19.05;;;13.30;;
79122;SDS011;68526;44.600;26.032;2023-03-11T00:43:44;19.08;;;12.95;;
79122;SDS011;68526;44.600;26.032;2023-03-11T00:44:46;16.55;;;12.50;;
79122;SDS011;68526;44.600;26.032;2023-03-11T00:45:47;16.95;;;12.25;;
79122;SDS011;68526;44.600;26.032;2023-03-11T00:46:49;16.65;;;12.00;;
79122;SDS011;68526;44.600;26.032;2023-03-11T00:47:49;19.05;;;13.55;;
79122;SDS011;68526;44.600;26.032;2023-03-11T00:48:52;18.58;;;13.20;;
79122;SDS011;68526;44.600;26.032;2023-03-11T00:49:52;17.45;;;12.77;;
79122;SDS011;68526;44.600;26.032;2023-03-11T00:50:54;17.33;;;12.95;;
79122;SDS011;68526;44.600;26.032;2023-03-11T00:51:55;19.23;;;13.80;;
79122;SDS011;68526;44.600;26.032;2023-03-11T00:52:57;19.33;;;13.32;;
79122;SDS011;68526;44.600;26.032;2023-03-11T00:53:59;19.90;;;13.48;;
79122;SDS011;68526;44.600;26.032;2023-03-11T00:55:02;19.20;;;13.52;;
79122;SDS011;68526;44.600;26.032;2023-03-11T00:56:07;20.65;;;13.40;;
79122;SDS011;68526;44.600;26.032;2023-03-11T00:57:09;16.98;;;12.43;;
79122;SDS011;68526;44.600;26.032;2023-03-11T00:58:10;19.02;;;14.15;;
79122;SDS011;68526;44.600;26.032;2023-03-11T00:59:13;18.23;;;12.95;;
79122;SDS011;68526;44.600;26.032;2023-03-11T01:00:14;20.45;;;13.13;;
79122;SDS011;68526;44.600;26.032;2023-03-11T01:01:17;19.38;;;12.02;;
79122;SDS011;68526;44.600;26.032;2023-03-11T01:02:19;18.30;;;13.30;;
79122;SDS011;68526;44.600;26.032;2023-03-11T01:03:21;16.80;;;12.23;;
79122;SDS011;68526;44.600;26.032;2023-03-11T01:04:21;19.73;;;13.05;;
79122;SDS011;68526;44.600;26.032;2023-03-11T01:05:24;19.40;;;13.10;;
79122;SDS011;68526;44.600;26.032;2023-03-11T01:06:27;19.20;;;14.90;;
79122;SDS011;68526;44.600;26.032;2023-03-11T01:07:29;26.38;;;14.50;;
79122;SDS011;68526;44.600;26.032;2023-03-11T01:08:30;21.42;;;14.35;;
79122;SDS011;68526;44.600;26.032;2023-03-11T01:09:32;20.27;;;14.30;;
79122;SDS011;68526;44.600;26.032;2023-03-11T01:10:34;20.10;;;13.95;;
79122;SDS011;68526;44.600;26.032;2023-03-11T01:11:36;18.73;;;13.65;;
79122;SDS011;68526;44.600;26.032;2023-03-11T01:12:37;19.63;;;14.65;;
79122;SDS011;68526;44.600;26.032;2023-03-11T01:13:39;23.27;;;15.13;;
79122;SDS011;68526;44.600;26.032;2023-03-11T01:14:41;22.25;;;14.40;;
79122;SDS011;68526;44.600;26.032;2023-03-11T01:15:41;21.80;;;14.40;;
79122;SDS011;68526;44.600;26.032;2023-03-11T01:16:43;22.67;;;15.57;;
79122;SDS011;68526;44.600;26.032;2023-03-11T01:17:45;21.90;;;15.25;;
79122;SDS011;68526;44.600;26.032;2023-03-11T01:18:47;23.02;;;16.17;;
79122;SDS011;68526;44.600;26.032;2023-03-11T01:19:48;25.00;;;17.67;;
79122;SDS011;68526;44.600;26.032;2023-03-11T01:20:50;22.65;;;14.90;;
79122;SDS011;68526;44.600;26.032;2023-03-11T01:21:52;22.90;;;15.73;;
79122;SDS011;68526;44.600;26.032;2023-03-11T01:22:53;22.00;;;17.25;;
79122;SDS011;68526;44.600;26.032;2023-03-11T01:23:54;23.60;;;16.13;;
79122;SDS011;68526;44.600;26.032;2023-03-11T01:24:56;24.45;;;17.40;;
79122;SDS011;68526;44.600;26.032;2023-03-11T01:25:58;27.65;;;18.13;;
79122;SDS011;68526;44.600;26.032;2023-03-11T01:27:00;25.23;;;17.92;;
79122;SDS011;68526;44.600;26.032;2023-03-11T01:28:01;25.55;;;18.48;;
79122;SDS011;68526;44.600;26.032;2023-03-11T01:29:03;26.02;;;18.63;;
79122;SDS011;68526;44.600;26.032;2023-03-11T01:30:04;26.42;;;17.85;;
79122;SDS011;68526;44.600;26.032;2023-03-11T01:31:07;26.95;;;18.02;;
79122;SDS011;68526;44.600;26.032;2023-03-11T01:32:09;25.42;;;17.98;;
79122;SDS011;68526;44.600;26.032;2023-03-11T01:33:12;24.73;;;17.00;;
79122;SDS011;68526;44.600;26.032;2023-03-11T01:34:16;23.95;;;16.92;;
79122;SDS011;68526;44.600;26.032;2023-03-11T01:35:17;27.40;;;19.05;;
79122;SDS011;68526;44.600;26.032;2023-03-11T01:36:21;29.45;;;20.30;;
79122;SDS011;68526;44.600;26.032;2023-03-11T01:37:22;28.05;;;19.42;;
79122;SDS011;68526;44.600;26.032;2023-03-11T01:38:24;29.63;;;19.90;;
79122;SDS011;68526;44.600;26.032;2023-03-11T01:39:25;28.13;;;19.60;;
79122;SDS011;68526;44.600;26.032;2023-03-11T01:40:29;29.00;;;20.13;;
79122;SDS011;68526;44.600;26.032;2023-03-11T01:41:32;26.98;;;18.65;;
79122;SDS011;68526;44.600;26.032;2023-03-11T01:42:34;32.53;;;19.60;;
79122;SDS011;68526;44.600;26.032;2023-03-11T01:43:37;31.40;;;20.88;;
79122;SDS011;68526;44.600;26.032;2023-03-11T01:44:48;29.65;;;19.00;;
79122;SDS011;68526;44.600;26.032;2023-03-11T01:46:09;29.45;;;21.58;;
79122;SDS011;68526;44.600;26.032;2023-03-11T01:48:34;28.38;;;19.55;;
79122;SDS011;68526;44.600;26.032;2023-03-11T01:49:37;30.10;;;20.20;;
79122;SDS011;68526;44.600;26.032;2023-03-11T01:50:42;33.47;;;21.67;;
79122;SDS011;68526;44.600;26.032;2023-03-11T01:51:47;32.75;;;21.58;;
79122;SDS011;68526;44.600;26.032;2023-03-11T01:52:51;30.92;;;21.55;;
79122;SDS011;68526;44.600;26.032;2023-03-11T01:53:54;31.88;;;22.08;;
79122;SDS011;68526;44.600;26.032;2023-03-11T01:54:56;34.22;;;22.02;;
79122;SDS011;68526;44.600;26.032;2023-03-11T01:55:58;32.65;;;21.08;;
79122;SDS011;68526;44.600;26.032;2023-03-11T01:57:03;28.75;;;20.85;;
79122;SDS011;68526;44.600;26.032;2023-03-11T01:58:08;33.90;;;21.00;;
79122;SDS011;68526;44.600;26.032;2023-03-11T01:59:12;30.85;;;20.05;;
79122;SDS011;68526;44.600;26.032;2023-03-11T02:00:18;30.42;;;22.23;;
79122;SDS011;68526;44.600;26.032;2023-03-11T02:01:20;31.48;;;20.95;;
79122;SDS011;68526;44.600;26.032;2023-03-11T02:02:24;30.38;;;21.83;;
79122;SDS011;68526;44.600;26.032;2023-03-11T02:03:29;33.50;;;21.27;;
79122;SDS011;68526;44.600;26.032;2023-03-11T02:04:33;31.48;;;21.80;;
79122;SDS011;68526;44.600;26.032;2023-03-11T02:05:34;33.15;;;21.85;;
79122;SDS011;68526;44.600;26.032;2023-03-11T02:06:37;29.98;;;21.30;;
79122;SDS011;68526;44.600;26.032;2023-03-11T02:07:38;28.50;;;20.75;;
79122;SDS011;68526;44.600;26.032;2023-03-11T02:08:41;31.40;;;22.27;;
79122;SDS011;68526;44.600;26.032;2023-03-11T02:09:43;33.63;;;22.15;;
79122;SDS011;68526;44.600;26.032;2023-03-11T02:10:45;31.88;;;21.90;;
79122;SDS011;68526;44.600;26.032;2023-03-11T02:11:47;35.72;;;22.15;;
79122;SDS011;68526;44.600;26.032;2023-03-11T02:12:51;31.50;;;22.90;;
79122;SDS011;68526;44.600;26.032;2023-03-11T02:13:53;33.83;;;23.40;;
79122;SDS011;68526;44.600;26.032;2023-03-11T02:14:57;32.65;;;22.50;;
79122;SDS011;68526;44.600;26.032;2023-03-11T02:15:58;36.60;;;23.38;;
79122;SDS011;68526;44.600;26.032;2023-03-11T02:17:00;32.15;;;21.98;;
79122;SDS011;68526;44.600;26.032;2023-03-11T02:18:02;36.58;;;24.23;;
79122;SDS011;68526;44.600;26.032;2023-03-11T02:19:08;34.10;;;23.60;;
79122;SDS011;68526;44.600;26.032;2023-03-11T02:20:21;36.13;;;24.02;;
79122;SDS011;68526;44.600;26.032;2023-03-11T02:21:33;35.22;;;24.35;;
79122;SDS011;68526;44.600;26.032;2023-03-11T02:22:34;36.08;;;24.60;;
79122;SDS011;68526;44.600;26.032;2023-03-11T02:23:38;35.78;;;25.10;;
79122;SDS011;68526;44.600;26.032;2023-03-11T02:24:48;34.63;;;22.98;;
79122;SDS011;68526;44.600;26.032;2023-03-11T02:25:59;35.95;;;23.63;;
79122;SDS011;68526;44.600;26.032;2023-03-11T02:27:08;36.33;;;24.58;;
79122;SDS011;68526;44.600;26.032;2023-03-11T02:28:12;36.30;;;23.92;;
79122;SDS011;68526;44.600;26.032;2023-03-11T02:29:16;34.35;;;22.55;;
79122;SDS011;68526;44.600;26.032;2023-03-11T02:30:20;33.78;;;23.75;;
79122;SDS011;68526;44.600;26.032;2023-03-11T02:31:22;33.45;;;23.20;;
79122;SDS011;68526;44.600;26.032;2023-03-11T02:32:25;31.58;;;22.80;;
79122;SDS011;68526;44.600;26.032;2023-03-11T02:33:27;38.72;;;24.83;;
79122;SDS011;68526;44.600;26.032;2023-03-11T02:34:33;33.70;;;24.08;;
79122;SDS011;68526;44.600;26.032;2023-03-11T02:35:36;33.38;;;22.63;;
79122;SDS011;68526;44.600;26.032;2023-03-11T02:36:38;34.50;;;24.02;;
79122;SDS011;68526;44.600;26.032;2023-03-11T02:37:43;34.83;;;22.52;;
79122;SDS011;68526;44.600;26.032;2023-03-11T02:38:47;34.58;;;23.90;;
79122;SDS011;68526;44.600;26.032;2023-03-11T02:39:48;35.58;;;23.30;;
79122;SDS011;68526;44.600;26.032;2023-03-11T02:40:52;37.03;;;24.25;;
79122;SDS011;68526;44.600;26.032;2023-03-11T02:41:54;33.15;;;24.40;;
79122;SDS011;68526;44.600;26.032;2023-03-11T02:42:59;34.92;;;23.58;;
79122;SDS011;68526;44.600;26.032;2023-03-11T02:44:02;38.95;;;25.20;;
79122;SDS011;68526;44.600;26.032;2023-03-11T02:45:08;40.58;;;24.63;;
79122;SDS011;68526;44.600;26.032;2023-03-11T02:46:11;38.20;;;24.42;;
79122;SDS011;68526;44.600;26.032;2023-03-11T02:47:15;34.03;;;24.30;;
79122;SDS011;68526;44.600;26.032;2023-03-11T02:48:16;37.55;;;24.48;;
79122;SDS011;68526;44.600;26.032;2023-03-11T02:49:20;39.08;;;25.88;;
79122;SDS011;68526;44.600;26.032;2023-03-11T02:50:23;34.10;;;24.70;;
79122;SDS011;68526;44.600;26.032;2023-03-11T02:51:26;36.42;;;24.90;;
79122;SDS011;68526;44.600;26.032;2023-03-11T02:52:28;35.95;;;23.42;;
79122;SDS011;68526;44.600;26.032;2023-03-11T02:53:32;37.53;;;24.90;;
79122;SDS011;68526;44.600;26.032;2023-03-11T02:54:39;36.83;;;25.50;;
79122;SDS011;68526;44.600;26.032;2023-03-11T02:55:40;35.92;;;24.50;;
79122;SDS011;68526;44.600;26.032;2023-03-11T02:56:42;38.58;;;24.92;;
79122;SDS011;68526;44.600;26.032;2023-03-11T02:57:43;40.88;;;25.48;;
79122;SDS011;68526;44.600;26.032;2023-03-11T02:58:46;37.72;;;24.73;;
79122;SDS011;68526;44.600;26.032;2023-03-11T02:59:48;38.65;;;25.42;;
79122;SDS011;68526;44.600;26.032;2023-03-11T03:00:49;38.78;;;24.65;;
79122;SDS011;68526;44.600;26.032;2023-03-11T03:01:51;41.13;;;25.40;;
79122;SDS011;68526;44.600;26.032;2023-03-11T03:02:52;37.22;;;25.83;;
79122;SDS011;68526;44.600;26.032;2023-03-11T03:03:54;39.10;;;25.88;;
79122;SDS011;68526;44.600;26.032;2023-03-11T03:04:54;35.17;;;24.98;;
79122;SDS011;68526;44.600;26.032;2023-03-11T03:05:56;39.15;;;24.73;;
79122;SDS011;68526;44.600;26.032;2023-03-11T03:06:57;36.35;;;24.02;;
79122;SDS011;68526;44.600;26.032;2023-03-11T03:07:59;38.10;;;25.15;;
79122;SDS011;68526;44.600;26.032;2023-03-11T03:09:01;37.40;;;24.95;;
79122;SDS011;68526;44.600;26.032;2023-03-11T03:10:04;36.88;;;24.90;;
79122;SDS011;68526;44.600;26.032;2023-03-11T03:11:06;37.50;;;24.58;;
79122;SDS011;68526;44.600;26.032;2023-03-11T03:12:08;36.60;;;25.80;;
79122;SDS011;68526;44.600;26.032;2023-03-11T03:13:08;36.90;;;25.15;;
79122;SDS011;68526;44.600;26.032;2023-03-11T03:14:12;35.70;;;25.15;;
79122;SDS011;68526;44.600;26.032;2023-03-11T03:15:13;38.67;;;24.75;;
79122;SDS011;68526;44.600;26.032;2023-03-11T03:16:15;35.05;;;23.85;;
79122;SDS011;68526;44.600;26.032;2023-03-11T03:17:16;35.35;;;25.23;;
79122;SDS011;68526;44.600;26.032;2023-03-11T03:18:18;35.80;;;24.73;;
79122;SDS011;68526;44.600;26.032;2023-03-11T03:19:19;38.70;;;25.35;;
79122;SDS011;68526;44.600;26.032;2023-03-11T03:20:21;37.72;;;26.90;;
79122;SDS011;68526;44.600;26.032;2023-03-11T03:21:22;38.90;;;25.50;;
79122;SDS011;68526;44.600;26.032;2023-03-11T03:22:23;39.78;;;26.27;;
79122;SDS011;68526;44.600;26.032;2023-03-11T03:23:26;38.30;;;25.92;;
79122;SDS011;68526;44.600;26.032;2023-03-11T03:24:28;38.78;;;25.80;;
79122;SDS011;68526;44.600;26.032;2023-03-11T03:25:29;40.78;;;25.40;;
79122;SDS011;68526;44.600;26.032;2023-03-11T03:26:31;38.78;;;26.08;;
79122;SDS011;68526;44.600;26.032;2023-03-11T03:27:32;36.38;;;25.83;;
79122;SDS011;68526;44.600;26.032;2023-03-11T03:28:34;40.92;;;26.60;;
79122;SDS011;68526;44.600;26.032;2023-03-11T03:29:36;39.90;;;25.92;;
79122;SDS011;68526;44.600;26.032;2023-03-11T03:30:39;38.58;;;24.98;;
79122;SDS011;68526;44.600;26.032;2023-03-11T03:31:40;39.13;;;26.90;;
79122;SDS011;68526;44.600;26.032;2023-03-11T03:32:42;41.05;;;27.63;;
79122;SDS011;68526;44.600;26.032;2023-03-11T03:33:43;37.55;;;26.23;;
79122;SDS011;68526;44.600;26.032;2023-03-11T03:34:45;40.78;;;26.05;;
79122;SDS011;68526;44.600;26.032;2023-03-11T03:35:46;39.08;;;27.08;;
79122;SDS011;68526;44.600;26.032;2023-03-11T03:36:48;38.15;;;25.98;;
79122;SDS011;68526;44.600;26.032;2023-03-11T03:37:48;43.08;;;28.08;;
79122;SDS011;68526;44.600;26.032;2023-03-11T03:38:52;42.05;;;27.67;;
79122;SDS011;68526;44.600;26.032;2023-03-11T03:39:54;38.58;;;28.15;;
79122;SDS011;68526;44.600;26.032;2023-03-11T03:40:56;37.97;;;26.48;;
79122;SDS011;68526;44.600;26.032;2023-03-11T03:41:57;41.65;;;28.02;;
79122;SDS011;68526;44.600;26.032;2023-03-11T03:42:58;42.35;;;27.38;;
79122;SDS011;68526;44.600;26.032;2023-03-11T03:43:59;44.22;;;27.17;;
79122;SDS011;68526;44.600;26.032;2023-03-11T03:45:03;41.60;;;27.48;;
79122;SDS011;68526;44.600;26.032;2023-03-11T03:46:06;41.35;;;26.75;;
79122;SDS011;68526;44.600;26.032;2023-03-11T03:47:08;38.10;;;26.05;;
79122;SDS011;68526;44.600;26.032;2023-03-11T03:48:09;39.63;;;27.58;;
79122;SDS011;68526;44.600;26.032;2023-03-11T03:49:11;42.83;;;26.70;;
79122;SDS011;68526;44.600;26.032;2023-03-11T03:50:12;38.80;;;27.17;;
79122;SDS011;68526;44.600;26.032;2023-03-11T03:51:14;40.13;;;25.77;;
79122;SDS011;68526;44.600;26.032;2023-03-11T03:52:14;37.70;;;24.65;;
79122;SDS011;68526;44.600;26.032;2023-03-11T03:53:16;36.78;;;24.45;;
79122;SDS011;68526;44.600;26.032;2023-03-11T03:54:17;39.78;;;25.38;;
79122;SDS011;68526;44.600;26.032;2023-03-11T03:55:19;36.58;;;24.17;;
79122;SDS011;68526;44.600;26.032;2023-03-11T03:56:20;38.83;;;24.23;;
79122;SDS011;68526;44.600;26.032;2023-03-11T03:57:22;35.83;;;22.80;;
79122;SDS011;68526;44.600;26.032;2023-03-11T03:58:23;37.00;;;23.67;;
79122;SDS011;68526;44.600;26.032;2023-03-11T03:59:24;36.67;;;22.95;;
79122;SDS011;68526;44.600;26.032;2023-03-11T04:00:26;38.95;;;23.92;;
79122;SDS011;68526;44.600;26.032;2023-03-11T04:01:28;36.20;;;24.05;;
79122;SDS011;68526;44.600;26.032;2023-03-11T04:02:29;36.15;;;24.35;;
79122;SDS011;68526;44.600;26.032;2023-03-11T04:03:31;37.45;;;23.52;;
79122;SDS011;68526;44.600;26.032;2023-03-11T04:04:33;34.30;;;23.00;;
79122;SDS011;68526;44.600;26.032;2023-03-11T04:05:35;37.20;;;23.48;;
79122;SDS011;68526;44.600;26.032;2023-03-11T04:06:36;36.47;;;23.48;;
79122;SDS011;68526;44.600;26.032;2023-03-11T04:07:38;40.33;;;25.63;;
79122;SDS011;68526;44.600;26.032;2023-03-11T04:08:40;38.38;;;25.45;;
79122;SDS011;68526;44.600;26.032;2023-03-11T04:09:42;37.22;;;23.55;;
79122;SDS011;68526;44.600;26.032;2023-03-11T04:10:44;37.00;;;24.45;;
79122;SDS011;68526;44.600;26.032;2023-03-11T04:11:55;37.50;;;24.58;;
79122;SDS011;68526;44.600;26.032;2023-03-11T04:12:56;42.65;;;26.55;;
79122;SDS011;68526;44.600;26.032;2023-03-11T04:13:57;36.55;;;23.40;;
79122;SDS011;68526;44.600;26.032;2023-03-11T04:15:01;33.80;;;23.77;;
79122;SDS011;68526;44.600;26.032;2023-03-11T04:16:04;36.05;;;23.88;;
79122;SDS011;68526;44.600;26.032;2023-03-11T04:17:07;36.35;;;24.08;;
79122;SDS011;68526;44.600;26.032;2023-03-11T04:18:08;34.90;;;22.70;;
79122;SDS011;68526;44.600;26.032;2023-03-11T04:19:10;37.00;;;25.42;;
79122;SDS011;68526;44.600;26.032;2023-03-11T04:20:11;38.83;;;24.15;;
79122;SDS011;68526;44.600;26.032;2023-03-11T04:21:13;40.60;;;25.50;;
79122;SDS011;68526;44.600;26.032;2023-03-11T04:22:14;39.25;;;25.52;;
79122;SDS011;68526;44.600;26.032;2023-03-11T04:23:16;38.17;;;25.48;;
79122;SDS011;68526;44.600;26.032;2023-03-11T04:24:17;38.83;;;24.30;;
79122;SDS011;68526;44.600;26.032;2023-03-11T04:25:19;34.83;;;22.75;;
79122;SDS011;68526;44.600;26.032;2023-03-11T04:26:20;35.38;;;24.75;;
79122;SDS011;68526;44.600;26.032;2023-03-11T04:27:21;35.92;;;22.38;;
79122;SDS011;68526;44.600;26.032;2023-03-11T04:28:22;37.10;;;24.27;;
79122;SDS011;68526;44.600;26.032;2023-03-11T04:29:24;39.33;;;24.45;;
79122;SDS011;68526;44.600;26.032;2023-03-11T04:30:25;37.67;;;23.48;;
79122;SDS011;68526;44.600;26.032;2023-03-11T04:31:28;37.28;;;23.88;;
79122;SDS011;68526;44.600;26.032;2023-03-11T04:32:29;37.25;;;23.77;;
79122;SDS011;68526;44.600;26.032;2023-03-11T04:33:31;36.88;;;24.13;;
79122;SDS011;68526;44.600;26.032;2023-03-11T04:34:32;36.55;;;25.55;;
79122;SDS011;68526;44.600;26.032;2023-03-11T04:35:34;37.75;;;25.45;;
79122;SDS011;68526;44.600;26.032;2023-03-11T04:36:37;39.33;;;24.65;;
79122;SDS011;68526;44.600;26.032;2023-03-11T04:37:39;38.25;;;25.75;;
79122;SDS011;68526;44.600;26.032;2023-03-11T04:38:40;37.53;;;23.70;;
79122;SDS011;68526;44.600;26.032;2023-03-11T04:39:41;38.72;;;24.88;;
79122;SDS011;68526;44.600;26.032;2023-03-11T04:40:42;40.58;;;25.08;;
79122;SDS011;68526;44.600;26.032;2023-03-11T04:41:44;38.97;;;24.50;;
79122;SDS011;68526;44.600;26.032;2023-03-11T04:42:45;38.65;;;24.83;;
79122;SDS011;68526;44.600;26.032;2023-03-11T04:43:47;40.72;;;25.58;;
79122;SDS011;68526;44.600;26.032;2023-03-11T04:44:48;39.70;;;24.50;;
79122;SDS011;68526;44.600;26.032;2023-03-11T04:45:49;36.90;;;25.05;;
79122;SDS011;68526;44.600;26.032;2023-03-11T04:46:53;37.38;;;24.52;;
79122;SDS011;68526;44.600;26.032;2023-03-11T04:47:54;38.53;;;25.67;;
79122;SDS011;68526;44.600;26.032;2023-03-11T04:48:55;36.75;;;23.45;;
79122;SDS011;68526;44.600;26.032;2023-03-11T04:49:57;38.53;;;25.20;;
79122;SDS011;68526;44.600;26.032;2023-03-11T04:50:58;36.95;;;24.50;;
79122;SDS011;68526;44.600;26.032;2023-03-11T04:52:00;37.60;;;25.17;;
79122;SDS011;68526;44.600;26.032;2023-03-11T04:53:01;38.92;;;25.15;;
79122;SDS011;68526;44.600;26.032;2023-03-11T04:54:03;37.55;;;24.30;;
79122;SDS011;68526;44.600;26.032;2023-03-11T04:55:04;38.17;;;24.75;;
79122;SDS011;68526;44.600;26.032;2023-03-11T04:56:07;38.03;;;24.73;;
79122;SDS011;68526;44.600;26.032;2023-03-11T04:57:07;36.80;;;22.73;;
79122;SDS011;68526;44.600;26.032;2023-03-11T04:58:09;41.03;;;24.90;;
79122;SDS011;68526;44.600;26.032;2023-03-11T04:59:10;37.00;;;23.85;;
79122;SDS011;68526;44.600;26.032;2023-03-11T05:00:13;36.15;;;23.95;;
79122;SDS011;68526;44.600;26.032;2023-03-11T05:01:14;40.45;;;24.40;;
79122;SDS011;68526;44.600;26.032;2023-03-11T05:02:18;36.65;;;23.80;;
79122;SDS011;68526;44.600;26.032;2023-03-11T05:03:18;40.03;;;24.55;;
79122;SDS011;68526;44.600;26.032;2023-03-11T05:04:20;36.03;;;23.52;;
79122;SDS011;68526;44.600;26.032;2023-03-11T05:05:21;39.20;;;24.10;;
79122;SDS011;68526;44.600;26.032;2023-03-11T05:06:24;38.75;;;23.55;;
79122;SDS011;68526;44.600;26.032;2023-03-11T05:07:24;37.60;;;23.83;;
79122;SDS011;68526;44.600;26.032;2023-03-11T05:08:26;38.28;;;24.30;;
79122;SDS011;68526;44.600;26.032;2023-03-11T05:09:27;39.50;;;23.65;;
79122;SDS011;68526;44.600;26.032;2023-03-11T05:10:29;40.38;;;24.30;;
79122;SDS011;68526;44.600;26.032;2023-03-11T05:11:30;38.22;;;23.73;;
79122;SDS011;68526;44.600;26.032;2023-03-11T05:12:32;38.03;;;24.45;;
79122;SDS011;68526;44.600;26.032;2023-03-11T05:13:32;39.08;;;23.40;;
79122;SDS011;68526;44.600;26.032;2023-03-11T05:14:34;40.45;;;25.27;;
79122;SDS011;68526;44.600;26.032;2023-03-11T05:15:35;37.42;;;23.80;;
79122;SDS011;68526;44.600;26.032;2023-03-11T05:16:37;39.67;;;23.90;;
79122;SDS011;68526;44.600;26.032;2023-03-11T05:17:39;36.97;;;23.13;;
79122;SDS011;68526;44.600;26.032;2023-03-11T05:18:41;38.03;;;23.55;;
79122;SDS011;68526;44.600;26.032;2023-03-11T05:19:42;35.97;;;22.10;;
79122;SDS011;68526;44.600;26.032;2023-03-11T05:20:44;35.30;;;22.40;;
79122;SDS011;68526;44.600;26.032;2023-03-11T05:21:45;37.63;;;22.10;;
79122;SDS011;68526;44.600;26.032;2023-03-11T05:22:47;37.05;;;23.23;;
79122;SDS011;68526;44.600;26.032;2023-03-11T05:23:47;37.22;;;23.52;;
79122;SDS011;68526;44.600;26.032;2023-03-11T05:24:49;36.78;;;22.92;;
79122;SDS011;68526;44.600;26.032;2023-03-11T05:25:50;34.25;;;23.65;;
79122;SDS011;68526;44.600;26.032;2023-03-11T05:26:52;36.30;;;23.13;;
79122;SDS011;68526;44.600;26.032;2023-03-11T05:27:53;33.58;;;22.30;;
79122;SDS011;68526;44.600;26.032;2023-03-11T05:28:55;35.13;;;21.60;;
79122;SDS011;68526;44.600;26.032;2023-03-11T05:29:56;36.92;;;22.33;;
79122;SDS011;68526;44.600;26.032;2023-03-11T05:30:58;37.47;;;23.20;;
79122;SDS011;68526;44.600;26.032;2023-03-11T05:31:58;34.47;;;20.88;;
79122;SDS011;68526;44.600;26.032;2023-03-11T05:33:02;34.78;;;20.80;;
79122;SDS011;68526;44.600;26.032;2023-03-11T05:34:02;31.38;;;19.92;;
79122;SDS011;68526;44.600;26.032;2023-03-11T05:35:05;30.92;;;19.73;;
79122;SDS011;68526;44.600;26.032;2023-03-11T05:36:07;27.20;;;17.50;;
79122;SDS011;68526;44.600;26.032;2023-03-11T05:37:10;29.38;;;19.55;;
79122;SDS011;68526;44.600;26.032;2023-03-11T05:38:12;28.27;;;18.33;;
79122;SDS011;68526;44.600;26.032;2023-03-11T05:39:14;29.65;;;17.13;;
79122;SDS011;68526;44.600;26.032;2023-03-11T05:40:15;24.88;;;15.38;;
79122;SDS011;68526;44.600;26.032;2023-03-11T05:41:17;28.23;;;16.38;;
79122;SDS011;68526;44.600;26.032;2023-03-11T05:42:18;26.63;;;15.45;;
79122;SDS011;68526;44.600;26.032;2023-03-11T05:43:20;24.23;;;15.65;;
79122;SDS011;68526;44.600;26.032;2023-03-11T05:44:21;22.67;;;15.10;;
79122;SDS011;68526;44.600;26.032;2023-03-11T05:45:23;21.15;;;14.75;;
79122;SDS011;68526;44.600;26.032;2023-03-11T05:46:24;22.85;;;15.25;;
79122;SDS011;68526;44.600;26.032;2023-03-11T05:47:26;24.25;;;15.68;;
79122;SDS011;68526;44.600;26.032;2023-03-11T05:48:28;22.80;;;15.40;;
79122;SDS011;68526;44.600;26.032;2023-03-11T05:49:30;22.35;;;15.15;;
79122;SDS011;68526;44.600;26.032;2023-03-11T05:50:31;23.33;;;15.95;;
79122;SDS011;68526;44.600;26.032;2023-03-11T05:51:33;23.58;;;15.52;;
79122;SDS011;68526;44.600;26.032;2023-03-11T05:52:34;24.67;;;15.52;;
79122;SDS011;68526;44.600;26.032;2023-03-11T05:53:36;26.35;;;16.00;;
79122;SDS011;68526;44.600;26.032;2023-03-11T05:54:37;23.38;;;14.88;;
79122;SDS011;68526;44.600;26.032;2023-03-11T05:55:39;24.77;;;15.13;;
79122;SDS011;68526;44.600;26.032;2023-03-11T05:56:40;25.33;;;16.42;;
79122;SDS011;68526;44.600;26.032;2023-03-11T05:57:42;25.42;;;15.93;;
79122;SDS011;68526;44.600;26.032;2023-03-11T05:58:44;25.13;;;15.73;;
79122;SDS011;68526;44.600;26.032;2023-03-11T05:59:45;24.02;;;15.18;;